createdAt,value
2023-02-15T00:00:35.150Z,22.40
2023-02-15T00:03:08.015Z,23.60
2023-02-15T00:05:41.210Z,24.30
2023-02-15T00:08:14.054Z,23.40
2023-02-15T00:10:47.500Z,22.00
2023-02-15T00:13:20.463Z,23.00
2023-02-15T00:15:53.249Z,22.30
2023-02-15T00:18:25.872Z,21.80
2023-02-15T00:20:59.180Z,21.40
2023-02-15T00:23:32.333Z,22.00
2023-02-15T00:26:13.501Z,24.90
2023-02-15T00:28:46.744Z,24.70
2023-02-15T00:31:20.342Z,24.10
2023-02-15T00:33:53.242Z,25.50
2023-02-15T00:36:26.319Z,24.60
2023-02-15T00:38:59.429Z,23.60
2023-02-15T00:41:32.541Z,23.10
2023-02-15T00:44:05.479Z,24.10
2023-02-15T00:46:39.103Z,23.80
2023-02-15T00:49:15.532Z,22.90
2023-02-15T00:51:48.495Z,25.10
2023-02-15T00:54:21.571Z,23.30
2023-02-15T00:56:55.018Z,24.50
2023-02-15T00:59:27.732Z,24.20
2023-02-15T01:02:03.466Z,24.80
2023-02-15T01:04:36.104Z,23.80
2023-02-15T01:07:09.470Z,24.00
2023-02-15T01:09:42.097Z,18.90
2023-02-15T01:12:15.633Z,26.40
2023-02-15T01:14:48.383Z,26.70
2023-02-15T01:17:23.195Z,25.80
2023-02-15T01:20:17.117Z,23.40
2023-02-15T01:22:51.495Z,24.20
2023-02-15T01:25:25.547Z,24.10
2023-02-15T01:27:58.427Z,25.20
2023-02-15T01:30:34.258Z,25.30
2023-02-15T01:33:07.185Z,18.10
2023-02-15T01:35:41.184Z,25.70
2023-02-15T01:38:13.977Z,26.30
2023-02-15T01:40:46.578Z,24.60
2023-02-15T01:43:19.698Z,24.50
2023-02-15T01:45:53.504Z,25.90
2023-02-15T01:48:30.204Z,24.60
2023-02-15T01:51:05.343Z,25.30
2023-02-15T01:53:41.523Z,26.40
2023-02-15T01:56:18.019Z,25.80
2023-02-15T01:58:59.086Z,24.80
2023-02-15T02:01:32.347Z,24.70
2023-02-15T02:04:12.524Z,25.90
2023-02-15T02:06:46.920Z,25.20
2023-02-15T02:09:19.603Z,27.80
2023-02-15T02:11:55.459Z,25.40
2023-02-15T02:14:29.006Z,27.00
2023-02-15T02:17:11.866Z,27.40
2023-02-15T02:20:09.478Z,26.20
2023-02-15T02:23:11.359Z,25.80
2023-02-15T02:26:21.522Z,27.10
2023-02-15T02:29:18.881Z,25.80
2023-02-15T02:32:15.561Z,27.20
2023-02-15T02:34:53.508Z,26.30
2023-02-15T02:37:31.982Z,26.00
2023-02-15T02:40:13.929Z,26.20
2023-02-15T02:42:52.419Z,25.10
2023-02-15T02:45:35.331Z,25.50
2023-02-15T02:48:12.647Z,26.90
2023-02-15T02:50:45.939Z,26.10
2023-02-15T02:55:53.119Z,25.60
2023-02-15T02:58:32.531Z,24.10
2023-02-15T03:01:12.308Z,26.30
2023-02-15T03:03:48.194Z,25.50
2023-02-15T03:06:25.420Z,25.30
2023-02-15T03:09:06.721Z,26.20
2023-02-15T03:11:42.159Z,27.30
2023-02-15T03:14:16.612Z,25.40
2023-02-15T03:16:53.976Z,25.80
2023-02-15T03:19:31.725Z,25.50
2023-02-15T03:22:11.825Z,26.70
2023-02-15T03:24:48.064Z,28.00
2023-02-15T03:27:25.087Z,26.30
2023-02-15T03:30:01.493Z,25.70
2023-02-15T03:32:37.304Z,24.40
2023-02-15T03:35:12.286Z,24.70
2023-02-15T03:37:49.706Z,26.30
2023-02-15T03:40:43.100Z,26.20
2023-02-15T03:43:21.238Z,25.30
2023-02-15T03:46:04.267Z,23.10
2023-02-15T03:48:41.836Z,23.70
2023-02-15T03:51:37.950Z,25.60
2023-02-15T03:54:13.922Z,21.90
2023-02-15T03:57:07.736Z,23.70
2023-02-15T03:59:57.375Z,23.20
2023-02-15T04:02:40.109Z,23.60
2023-02-15T04:05:12.866Z,26.70
2023-02-15T04:07:45.924Z,24.70
2023-02-15T04:10:36.088Z,26.20
2023-02-15T04:13:08.905Z,24.70
2023-02-15T04:15:58.498Z,25.80
2023-02-15T04:18:49.214Z,23.90
2023-02-15T04:21:39.861Z,26.90
2023-02-15T04:24:31.104Z,25.40
2023-02-15T04:27:04.720Z,26.30
2023-02-15T04:29:37.503Z,25.80
2023-02-15T04:32:10.421Z,27.40
2023-02-15T04:34:43.028Z,25.80
2023-02-15T04:37:15.590Z,25.20
2023-02-15T04:39:48.330Z,21.60
2023-02-15T04:42:20.919Z,25.60
2023-02-15T04:44:54.081Z,25.10
2023-02-15T04:47:27.745Z,23.90
2023-02-15T04:50:00.925Z,24.40
2023-02-15T04:52:34.087Z,25.00
2023-02-15T04:55:07.377Z,25.40
2023-02-15T04:57:39.890Z,20.70
2023-02-15T05:00:14.739Z,25.70
2023-02-15T05:02:47.417Z,24.10
2023-02-15T05:05:20.877Z,25.80
2023-02-15T05:07:53.493Z,25.70
2023-02-15T05:10:26.288Z,25.60
2023-02-15T05:12:58.890Z,25.80
2023-02-15T05:15:31.856Z,26.50
2023-02-15T05:18:05.107Z,24.30
2023-02-15T05:20:38.378Z,25.00
2023-02-15T05:23:11.590Z,26.30
2023-02-15T05:26:06.139Z,20.40
2023-02-15T05:28:40.760Z,26.80
2023-02-15T05:31:16.577Z,25.80
2023-02-15T05:33:49.675Z,26.70
2023-02-15T05:36:24.493Z,27.40
2023-02-15T05:38:57.264Z,27.10
2023-02-15T05:41:30.376Z,25.10
2023-02-15T05:44:02.908Z,19.50
2023-02-15T05:46:36.734Z,26.00
2023-02-15T05:49:09.485Z,25.60
2023-02-15T05:51:42.439Z,23.40
2023-02-15T05:54:15.327Z,19.30
2023-02-15T05:56:48.525Z,25.00
2023-02-15T05:59:21.294Z,26.50
2023-02-15T06:01:54.857Z,26.50
2023-02-15T06:04:27.695Z,26.30
2023-02-15T06:07:00.375Z,25.40
2023-02-15T06:09:33.859Z,25.70
2023-02-15T06:12:06.869Z,27.40
2023-02-15T06:14:39.866Z,26.70
2023-02-15T06:17:12.547Z,26.20
2023-02-15T06:19:45.919Z,17.20
2023-02-15T06:22:21.668Z,25.70
2023-02-15T06:24:54.364Z,27.20
2023-02-15T06:27:28.137Z,26.80
2023-02-15T06:30:00.646Z,27.10
2023-02-15T06:32:34.907Z,27.40
2023-02-15T06:35:08.224Z,27.00
2023-02-15T06:37:41.879Z,27.50
2023-02-15T06:40:15.498Z,26.30
2023-02-15T06:42:48.606Z,29.00
2023-02-15T06:45:22.648Z,28.50
2023-02-15T06:47:55.291Z,22.10
2023-02-15T06:50:28.169Z,26.40
2023-02-15T06:53:03.869Z,20.60
2023-02-15T06:55:36.878Z,25.60
2023-02-15T06:58:10.112Z,23.50
2023-02-15T07:00:42.816Z,27.70
2023-02-15T07:03:17.918Z,27.60
2023-02-15T07:05:51.371Z,26.80
2023-02-15T07:08:24.472Z,25.80
2023-02-15T07:11:19.127Z,26.20
2023-02-15T07:13:53.788Z,27.00
2023-02-15T07:16:26.382Z,27.30
2023-02-15T07:18:59.229Z,28.70
2023-02-15T07:21:31.939Z,27.50
2023-02-15T07:24:05.622Z,26.40
2023-02-15T07:26:38.276Z,29.00
2023-02-15T07:29:11.087Z,27.30
2023-02-15T07:31:44.548Z,26.90
2023-02-15T07:34:17.847Z,25.70
2023-02-15T07:36:53.177Z,26.90
2023-02-15T07:39:26.037Z,25.10
2023-02-15T07:41:58.787Z,29.90
2023-02-15T07:44:36.797Z,26.00
2023-02-15T07:47:09.797Z,38.50
2023-02-15T07:49:43.815Z,32.50
2023-02-15T07:52:16.449Z,29.20
2023-02-15T07:54:49.429Z,28.00
2023-02-15T07:57:22.818Z,27.10
2023-02-15T07:59:55.859Z,26.20
2023-02-15T08:02:30.417Z,23.90
2023-02-15T08:05:03.395Z,27.10
2023-02-15T08:07:35.959Z,27.50
2023-02-15T08:10:31.844Z,29.10
2023-02-15T08:13:04.611Z,28.40
2023-02-15T08:15:37.321Z,25.30
2023-02-15T08:18:09.993Z,28.10
2023-02-15T08:20:44.762Z,27.30
2023-02-15T08:23:17.554Z,26.60
2023-02-15T08:25:50.785Z,26.20
2023-02-15T08:28:23.841Z,27.70
2023-02-15T08:30:56.717Z,26.60
2023-02-15T08:33:29.877Z,25.50
2023-02-15T08:36:07.607Z,26.00
2023-02-15T08:38:40.809Z,27.40
2023-02-15T08:41:20.349Z,26.20
2023-02-15T08:43:55.168Z,28.40
2023-02-15T08:46:30.018Z,27.60
2023-02-15T08:49:03.297Z,25.20
2023-02-15T08:51:38.603Z,25.60
2023-02-15T08:54:13.269Z,43.10
2023-02-15T08:56:47.136Z,29.40
2023-02-15T08:59:21.434Z,28.70
2023-02-15T09:01:55.798Z,28.00
2023-02-15T09:04:28.504Z,30.80
2023-02-15T09:07:01.524Z,32.20
2023-02-15T09:09:34.508Z,30.10
2023-02-15T09:12:08.087Z,29.20
2023-02-15T09:14:41.034Z,31.10
2023-02-15T09:17:16.125Z,28.40
2023-02-15T09:19:48.889Z,30.50
2023-02-15T09:22:22.376Z,26.80
2023-02-15T09:24:55.780Z,27.90
2023-02-15T09:27:28.764Z,26.20
2023-02-15T09:30:01.640Z,27.00
2023-02-15T09:32:34.508Z,27.00
2023-02-15T09:35:07.912Z,30.00
2023-02-15T09:37:41.257Z,28.20
2023-02-15T09:40:19.121Z,29.00
2023-02-15T09:43:19.392Z,28.00
2023-02-15T09:46:05.585Z,25.50
2023-02-15T09:48:49.663Z,23.70
2023-02-15T09:52:02.222Z,24.40
2023-02-15T09:54:56.767Z,26.90
2023-02-15T09:57:39.476Z,26.00
2023-02-15T10:00:24.701Z,25.90
2023-02-15T10:03:15.895Z,26.20
2023-02-15T10:06:06.805Z,26.50
2023-02-15T10:09:03.127Z,26.20
2023-02-15T10:11:51.396Z,26.30
2023-02-15T10:14:48.388Z,25.90
2023-02-15T10:17:32.387Z,24.90
2023-02-15T10:20:19.322Z,25.70
2023-02-15T10:23:12.585Z,23.60
2023-02-15T10:25:49.863Z,27.50
2023-02-15T10:28:26.699Z,27.40
2023-02-15T10:31:08.133Z,26.70
2023-02-15T10:33:45.279Z,27.90
2023-02-15T10:36:42.956Z,27.00
2023-02-15T10:39:26.484Z,24.70
2023-02-15T10:42:08.340Z,24.60
2023-02-15T10:44:57.498Z,27.60
2023-02-15T10:47:45.990Z,26.30
2023-02-15T10:50:32.576Z,26.40
2023-02-15T10:53:17.846Z,24.10
2023-02-15T10:55:58.416Z,24.40
2023-02-15T10:58:48.977Z,28.00
2023-02-15T11:01:28.745Z,25.30
2023-02-15T11:04:42.949Z,25.90
2023-02-15T11:07:22.734Z,21.00
2023-02-15T11:09:59.537Z,26.10
2023-02-15T11:12:34.300Z,27.20
2023-02-15T11:15:18.260Z,23.30
2023-02-15T11:20:32.026Z,25.60
2023-02-15T11:23:16.640Z,23.50
2023-02-15T11:25:55.539Z,24.60
2023-02-15T11:28:34.276Z,25.70
2023-02-15T11:31:18.842Z,25.60
2023-02-15T11:33:55.624Z,27.80
2023-02-15T11:36:32.003Z,27.80
2023-02-15T11:39:12.501Z,26.10
2023-02-15T11:41:51.413Z,25.40
2023-02-15T11:44:29.163Z,26.40
2023-02-15T11:47:20.242Z,26.10
2023-02-15T11:49:53.123Z,29.10
2023-02-15T11:52:25.796Z,26.60
2023-02-15T11:54:58.674Z,22.40
2023-02-15T11:57:41.787Z,26.50
2023-02-15T12:00:26.089Z,28.80
2023-02-15T12:05:30.952Z,27.50
2023-02-15T12:08:13.124Z,27.40
2023-02-15T12:14:17.053Z,27.30
2023-02-15T12:16:52.655Z,27.00
2023-02-15T12:19:34.760Z,24.70
2023-02-15T12:22:11.133Z,26.80
2023-02-15T12:24:50.768Z,26.50
2023-02-15T12:27:27.401Z,28.10
2023-02-15T12:30:03.771Z,27.90
2023-02-15T12:32:49.966Z,27.90
2023-02-15T12:35:30.557Z,27.20
2023-02-15T12:38:07.424Z,27.60
2023-02-15T12:40:42.507Z,26.50
2023-02-15T12:43:30.353Z,27.60
2023-02-15T12:46:23.155Z,27.70
2023-02-15T12:51:56.844Z,28.00
2023-02-15T12:54:41.691Z,25.00
2023-02-15T12:57:35.017Z,27.00
2023-02-15T13:00:10.444Z,26.60
2023-02-15T13:02:49.463Z,26.50
2023-02-15T13:05:27.559Z,28.60
2023-02-15T13:08:02.778Z,28.00
2023-02-15T13:10:38.902Z,28.10
2023-02-15T13:13:23.414Z,26.20
2023-02-15T13:16:11.318Z,27.00
2023-02-15T13:18:55.764Z,25.70
2023-02-15T13:21:33.395Z,27.90
2023-02-15T13:24:08.143Z,29.00
2023-02-15T13:26:46.030Z,29.40
2023-02-15T13:29:27.181Z,29.10
2023-02-15T13:32:10.667Z,28.10
2023-02-15T13:34:44.579Z,28.60
2023-02-15T13:37:22.146Z,28.40
2023-02-15T13:40:00.923Z,28.70
2023-02-15T13:42:40.218Z,29.90
2023-02-15T13:45:32.050Z,29.30
2023-02-15T13:48:17.064Z,29.90
2023-02-15T13:51:03.982Z,31.60
2023-02-15T13:53:52.851Z,28.60
2023-02-15T13:56:39.031Z,31.40
2023-02-15T13:59:46.870Z,30.60
2023-02-15T14:02:48.812Z,29.70
2023-02-15T14:05:32.629Z,29.90
2023-02-15T14:08:14.372Z,30.80
2023-02-15T14:11:02.481Z,30.60
2023-02-15T14:14:08.618Z,33.30
2023-02-15T14:17:05.753Z,33.40
2023-02-15T14:19:47.131Z,33.50
2023-02-15T14:22:33.358Z,34.90
2023-02-15T14:25:18.743Z,34.80
2023-02-15T14:28:02.538Z,34.00
2023-02-15T14:30:37.818Z,37.10
2023-02-15T14:33:21.672Z,37.60
2023-02-15T14:35:55.467Z,35.30
2023-02-15T14:38:41.631Z,39.50
2023-02-15T14:41:20.572Z,38.30
2023-02-15T14:44:04.271Z,39.60
2023-02-15T14:46:41.621Z,41.80
2023-02-15T14:49:18.257Z,44.30
2023-02-15T14:52:06.596Z,41.10
2023-02-15T14:55:02.562Z,41.20
2023-02-15T14:57:40.097Z,41.30
2023-02-15T15:00:34.526Z,42.00
2023-02-15T15:03:23.013Z,43.50
2023-02-15T15:06:01.755Z,45.70
2023-02-15T15:08:39.987Z,48.30
2023-02-15T15:11:44.783Z,47.00
2023-02-15T15:14:47.248Z,46.90
2023-02-15T15:17:59.601Z,45.00
2023-02-15T15:20:51.771Z,48.50
2023-02-15T15:23:53.426Z,52.50
2023-02-15T15:29:11.333Z,44.80
2023-02-15T15:31:50.544Z,48.20
2023-02-15T15:34:47.345Z,46.90
2023-02-15T15:38:03.603Z,48.90
2023-02-15T15:41:06.201Z,49.40
2023-02-15T15:44:12.421Z,49.10
2023-02-15T15:47:18.121Z,49.50
2023-02-15T15:49:57.563Z,49.10
2023-02-15T15:52:39.924Z,53.80
2023-02-15T15:55:20.902Z,58.90
2023-02-15T15:57:56.045Z,59.50
2023-02-15T16:00:41.837Z,59.90
2023-02-15T16:03:23.784Z,57.90
2023-02-15T16:06:01.923Z,62.10
2023-02-15T16:08:38.026Z,68.30
2023-02-15T16:11:20.985Z,69.20
2023-02-15T16:13:59.921Z,56.00
2023-02-15T16:16:34.543Z,52.90
2023-02-15T16:19:08.944Z,52.90
2023-02-15T16:21:42.214Z,48.80
2023-02-15T16:24:36.115Z,53.00
2023-02-15T16:27:30.242Z,50.20
2023-02-15T16:30:13.688Z,52.00
2023-02-15T16:32:47.509Z,53.30
2023-02-15T16:37:56.822Z,52.40
2023-02-15T16:40:43.849Z,51.20
2023-02-15T16:43:27.694Z,49.90
2023-02-15T16:46:07.759Z,52.30
2023-02-15T16:48:48.582Z,60.40
2023-02-15T16:51:28.493Z,57.60
2023-02-15T16:54:07.326Z,57.20
2023-02-15T16:56:50.060Z,57.80
2023-02-15T16:59:39.592Z,47.70
2023-02-15T17:02:40.226Z,48.40
2023-02-15T17:05:21.340Z,46.50
2023-02-15T17:08:16.129Z,48.80
2023-02-15T17:13:23.985Z,42.30
2023-02-15T17:16:34.836Z,53.20
2023-02-15T17:19:17.621Z,64.70
2023-02-15T17:22:06.185Z,63.70
2023-02-15T17:24:41.632Z,52.80
2023-02-15T17:27:21.434Z,49.10
2023-02-15T17:29:59.055Z,46.70
2023-02-15T17:32:37.534Z,52.20
2023-02-15T17:35:22.205Z,50.80
2023-02-15T17:38:03.023Z,48.70
2023-02-15T17:40:37.310Z,47.80
2023-02-15T17:43:10.131Z,53.20
2023-02-15T17:45:47.015Z,70.30
2023-02-15T17:48:33.158Z,57.20
2023-02-15T17:51:08.205Z,51.80
2023-02-15T17:53:42.473Z,52.90
2023-02-15T17:56:16.617Z,52.30
2023-02-15T17:58:49.567Z,49.00
2023-02-15T18:01:43.298Z,46.10
2023-02-15T18:04:35.696Z,45.70
2023-02-15T18:07:27.906Z,63.20
2023-02-15T18:10:17.353Z,52.30
2023-02-15T18:12:49.891Z,39.80
2023-02-15T18:15:22.499Z,118.70
2023-02-15T18:17:56.906Z,49.80
2023-02-15T18:20:37.164Z,44.50
2023-02-15T18:23:13.920Z,44.00
2023-02-15T18:25:48.871Z,43.40
2023-02-15T18:28:21.394Z,43.00
2023-02-15T18:30:54.107Z,43.50
2023-02-15T18:33:38.248Z,40.50
2023-02-15T18:36:16.441Z,46.40
2023-02-15T18:38:49.352Z,44.30
2023-02-15T18:41:23.737Z,43.00
2023-02-15T18:44:07.304Z,43.00
2023-02-15T18:46:42.722Z,42.60
2023-02-15T18:49:15.584Z,43.00
2023-02-15T18:51:49.538Z,41.40
2023-02-15T18:54:25.298Z,36.20
2023-02-15T18:57:00.383Z,36.10
2023-02-15T18:59:34.373Z,35.20
2023-02-15T19:02:14.021Z,36.30
2023-02-15T19:04:48.016Z,39.70
2023-02-15T19:07:25.454Z,39.80
2023-02-15T19:10:01.888Z,40.40
2023-02-15T19:12:37.767Z,38.30
2023-02-15T19:15:18.743Z,40.40
2023-02-15T19:17:54.459Z,36.60
2023-02-15T19:20:37.020Z,36.00
2023-02-15T19:23:14.168Z,37.60
2023-02-15T19:25:49.730Z,38.00
2023-02-15T19:28:28.108Z,40.50
2023-02-15T19:31:01.032Z,42.30
2023-02-15T19:33:33.718Z,42.90
2023-02-15T19:36:08.058Z,34.40
2023-02-15T19:38:41.489Z,41.70
2023-02-15T19:43:56.237Z,35.80
2023-02-15T19:46:29.396Z,35.50
2023-02-15T19:49:05.523Z,39.10
2023-02-15T19:51:42.744Z,36.10
2023-02-15T19:54:37.002Z,35.10
2023-02-15T19:57:17.431Z,30.30
2023-02-15T19:59:51.427Z,34.30
2023-02-15T20:02:24.317Z,34.10
2023-02-15T20:04:58.221Z,30.30
2023-02-15T20:07:31.937Z,32.70
2023-02-15T20:10:05.292Z,36.00
2023-02-15T20:12:38.695Z,34.90
2023-02-15T20:15:21.680Z,43.30
2023-02-15T20:17:57.774Z,36.20
2023-02-15T20:20:36.477Z,36.00
2023-02-15T20:23:14.527Z,35.30
2023-02-15T20:25:47.612Z,36.10
2023-02-15T20:28:22.506Z,34.40
2023-02-15T20:30:56.181Z,34.10
2023-02-15T20:33:30.898Z,33.70
2023-02-15T20:36:03.918Z,33.60
2023-02-15T20:38:36.768Z,33.80
2023-02-15T20:41:31.992Z,32.70
2023-02-15T20:44:13.519Z,35.20
2023-02-15T20:46:46.208Z,33.40
2023-02-15T20:49:19.122Z,33.60
2023-02-15T20:51:52.751Z,25.50
2023-02-15T20:54:28.417Z,37.30
2023-02-15T20:57:06.374Z,35.20
2023-02-15T20:59:39.631Z,35.10
2023-02-15T21:02:20.678Z,35.30
2023-02-15T21:04:58.246Z,34.70
2023-02-15T21:07:30.771Z,34.40
2023-02-15T21:10:03.858Z,36.50
2023-02-15T21:12:37.948Z,33.70
2023-02-15T21:15:29.109Z,35.00
2023-02-15T21:18:04.513Z,32.60
2023-02-15T21:20:38.978Z,37.60
2023-02-15T21:23:16.339Z,36.70
2023-02-15T21:25:49.269Z,35.00
2023-02-15T21:28:24.523Z,34.40
2023-02-15T21:31:00.170Z,35.10
2023-02-15T21:33:36.131Z,34.40
2023-02-15T21:36:16.337Z,34.50
2023-02-15T21:38:50.070Z,37.50
2023-02-15T21:44:41.416Z,34.00
2023-02-15T21:47:40.124Z,33.40
2023-02-15T21:50:33.389Z,36.60
2023-02-15T21:53:07.714Z,35.90
2023-02-15T21:55:40.415Z,34.90
2023-02-15T21:58:18.667Z,38.90
2023-02-15T22:00:54.934Z,36.80
2023-02-15T22:03:29.992Z,37.60
2023-02-15T22:06:04.874Z,35.70
2023-02-15T22:08:37.678Z,37.80
2023-02-15T22:11:14.853Z,36.90
2023-02-15T22:13:48.294Z,36.10
2023-02-15T22:16:23.827Z,36.90
2023-02-15T22:18:57.867Z,38.10
2023-02-15T22:21:32.135Z,36.60
2023-02-15T22:26:35.666Z,37.50
2023-02-15T22:29:08.254Z,26.80
2023-02-15T22:31:40.955Z,37.40
2023-02-15T22:34:28.539Z,38.30
2023-02-15T22:37:03.413Z,39.80
2023-02-15T22:39:37.814Z,39.30
2023-02-15T22:42:21.677Z,41.10
2023-02-15T22:47:27.633Z,41.20
2023-02-15T22:50:00.282Z,45.10
2023-02-15T22:52:32.783Z,43.80
2023-02-15T22:55:05.774Z,41.10
2023-02-15T22:57:38.521Z,44.80
2023-02-15T23:00:17.166Z,40.90
2023-02-15T23:02:49.864Z,42.50
2023-02-15T23:05:25.551Z,45.20
2023-02-15T23:08:00.754Z,43.90
2023-02-15T23:10:33.973Z,46.70
2023-02-15T23:13:26.245Z,45.10
2023-02-15T23:16:02.577Z,44.40
2023-02-15T23:18:39.078Z,46.10
2023-02-15T23:21:21.241Z,46.90
2023-02-15T23:23:55.462Z,47.40
2023-02-15T23:26:30.106Z,48.30
2023-02-15T23:29:04.242Z,49.70
2023-02-15T23:31:39.287Z,50.60
2023-02-15T23:34:18.022Z,51.30
2023-02-15T23:36:52.148Z,52.40
2023-02-15T23:39:43.499Z,53.90
2023-02-15T23:42:18.106Z,53.40
2023-02-15T23:44:51.752Z,56.40
2023-02-15T23:47:42.646Z,53.30
2023-02-15T23:50:22.116Z,53.80
2023-02-15T23:52:56.637Z,56.80
2023-02-15T23:55:35.625Z,55.00
2023-02-15T23:58:12.982Z,55.70
